createdAt,value
2018-02-19T00:01:02.503Z,14.90
2018-02-19T00:03:30.063Z,13.80
2018-02-19T00:05:57.611Z,14.63
2018-02-19T00:08:25.177Z,16.30
2018-02-19T00:10:52.723Z,12.60
2018-02-19T00:13:20.284Z,14.50
2018-02-19T00:15:47.828Z,13.47
2018-02-19T00:18:15.419Z,19.37
2018-02-19T00:20:42.955Z,12.20
2018-02-19T00:23:11.262Z,13.67
2018-02-19T00:25:38.823Z,11.77
2018-02-19T00:28:07.122Z,17.63
2018-02-19T00:30:34.683Z,15.83
2018-02-19T00:33:02.984Z,17.37
2018-02-19T00:35:30.553Z,13.33
2018-02-19T00:37:58.092Z,12.97
2018-02-19T00:40:25.668Z,14.57
2018-02-19T00:42:53.211Z,15.10
2018-02-19T00:45:20.775Z,20.23
2018-02-19T00:47:48.312Z,18.37
2018-02-19T00:50:15.883Z,13.70
2018-02-19T00:52:43.415Z,19.87
2018-02-19T00:55:11.058Z,16.50
2018-02-19T00:57:38.587Z,13.17
2018-02-19T01:00:06.892Z,19.47
2018-02-19T01:02:34.451Z,12.63
2018-02-19T01:05:02.752Z,17.30
2018-02-19T01:07:30.338Z,16.40
2018-02-19T01:09:57.881Z,18.13
2018-02-19T01:12:26.228Z,14.07
2018-02-19T01:14:53.764Z,18.23
2018-02-19T01:17:21.330Z,14.83
2018-02-19T01:19:48.876Z,19.00
2018-02-19T01:22:17.224Z,18.97
2018-02-19T01:24:44.767Z,20.17
2018-02-19T01:27:12.353Z,18.10
2018-02-19T01:29:39.892Z,16.33
2018-02-19T01:32:08.197Z,15.47
2018-02-19T01:34:35.751Z,14.97
2018-02-19T01:37:03.295Z,20.83
2018-02-19T01:39:30.852Z,18.07
2018-02-19T01:41:58.388Z,18.83
2018-02-19T01:44:25.959Z,18.07
2018-02-19T01:46:53.493Z,15.87
2018-02-19T01:49:21.078Z,23.33
2018-02-19T01:51:49.383Z,16.60
2018-02-19T01:54:16.943Z,20.03
2018-02-19T01:56:44.500Z,18.10
2018-02-19T01:59:12.077Z,17.63
2018-02-19T02:01:40.380Z,27.50
2018-02-19T02:04:07.916Z,16.00
2018-02-19T02:06:35.465Z,16.70
2018-02-19T02:09:03.010Z,14.47
2018-02-19T02:11:30.599Z,15.70
2018-02-19T02:13:58.163Z,12.23
2018-02-19T02:16:25.723Z,17.07
2018-02-19T02:18:53.262Z,12.70
2018-02-19T02:21:21.583Z,15.13
2018-02-19T02:23:49.120Z,21.97
2018-02-19T02:26:17.443Z,16.50
2018-02-19T02:28:44.979Z,16.20
2018-02-19T02:31:13.324Z,14.20
2018-02-19T02:33:40.865Z,21.80
2018-02-19T02:36:08.424Z,18.50
2018-02-19T02:38:36.749Z,16.27
2018-02-19T02:41:04.289Z,16.77
2018-02-19T02:43:32.619Z,15.13
2018-02-19T02:46:00.160Z,18.83
2018-02-19T02:48:27.722Z,14.10
2018-02-19T02:50:56.057Z,14.43
2018-02-19T02:53:24.395Z,16.90
2018-02-19T02:55:52.707Z,16.50
2018-02-19T02:58:20.280Z,15.67
2018-02-19T03:00:47.821Z,14.27
2018-02-19T03:03:16.142Z,18.33
2018-02-19T03:05:43.703Z,13.60
2018-02-19T03:08:11.252Z,19.60
2018-02-19T03:10:39.573Z,17.57
2018-02-19T03:13:07.116Z,14.07
2018-02-19T03:15:35.474Z,19.73
2018-02-19T03:18:03.036Z,24.93
2018-02-19T03:20:30.599Z,17.30
2018-02-19T03:22:58.140Z,20.00
2018-02-19T03:25:25.697Z,19.07
2018-02-19T03:27:54.000Z,13.50
2018-02-19T03:30:21.584Z,17.57
2018-02-19T03:32:49.130Z,15.70
2018-02-19T03:35:17.443Z,10.30
2018-02-19T03:37:45.020Z,22.43
2018-02-19T03:40:12.565Z,20.80
2018-02-19T03:42:40.901Z,14.83
2018-02-19T03:45:09.238Z,18.20
2018-02-19T03:47:36.797Z,13.73
2018-02-19T03:50:04.343Z,19.20
2018-02-19T03:52:31.908Z,19.50
2018-02-19T03:54:59.453Z,13.77
2018-02-19T03:57:27.012Z,14.60
2018-02-19T03:59:54.560Z,19.33
2018-02-19T04:02:22.144Z,12.60
2018-02-19T04:04:50.465Z,18.27
2018-02-19T04:07:18.004Z,18.30
2018-02-19T04:09:46.334Z,15.23
2018-02-19T04:12:13.868Z,16.47
2018-02-19T04:14:41.458Z,13.03
2018-02-19T04:17:09.002Z,19.73
2018-02-19T04:19:37.328Z,19.53
2018-02-19T04:22:04.875Z,16.37
2018-02-19T04:24:33.217Z,16.23
2018-02-19T04:27:00.755Z,22.63
2018-02-19T04:29:28.296Z,14.13
2018-02-19T04:31:56.640Z,15.23
2018-02-19T04:34:24.184Z,14.40
2018-02-19T04:36:51.750Z,12.60
2018-02-19T04:39:19.298Z,14.50
2018-02-19T04:41:47.633Z,15.50
2018-02-19T04:44:20.781Z,18.50
2018-02-19T04:46:49.177Z,13.53
2018-02-19T04:49:17.489Z,11.20
2018-02-19T04:51:45.051Z,13.37
2018-02-19T04:54:13.397Z,15.70
2018-02-19T04:56:41.960Z,21.50
2018-02-19T04:59:09.512Z,13.00
2018-02-19T05:01:37.068Z,17.97
2018-02-19T05:04:05.397Z,17.40
2018-02-19T05:06:32.979Z,14.17
2018-02-19T05:09:00.626Z,16.93
2018-02-19T05:11:28.283Z,15.00
2018-02-19T05:13:55.936Z,13.57
2018-02-19T05:16:23.662Z,15.03
2018-02-19T05:18:51.273Z,17.37
2018-02-19T05:21:18.822Z,23.07
2018-02-19T05:23:46.392Z,16.30
2018-02-19T05:26:13.953Z,19.97
2018-02-19T05:28:41.533Z,20.23
2018-02-19T05:31:09.080Z,16.00
2018-02-19T05:33:36.668Z,20.30
2018-02-19T05:36:04.220Z,11.50
2018-02-19T05:38:31.767Z,20.13
2018-02-19T05:40:59.327Z,20.23
2018-02-19T05:43:26.876Z,16.03
2018-02-19T05:45:54.436Z,15.37
2018-02-19T05:48:22.037Z,18.60
2018-02-19T05:50:49.612Z,17.10
2018-02-19T05:53:17.156Z,17.20
2018-02-19T05:55:44.728Z,19.20
2018-02-19T05:58:12.276Z,19.20
2018-02-19T06:00:39.855Z,27.47
2018-02-19T06:03:07.405Z,20.77
2018-02-19T06:05:35.736Z,22.50
2018-02-19T06:08:03.293Z,16.10
2018-02-19T06:10:30.895Z,23.00
2018-02-19T06:12:58.436Z,16.53
2018-02-19T06:15:25.980Z,16.20
2018-02-19T06:17:53.548Z,19.87
2018-02-19T06:20:21.860Z,17.77
2018-02-19T06:22:49.425Z,21.30
2018-02-19T06:25:17.003Z,16.63
2018-02-19T06:27:44.570Z,18.13
2018-02-19T06:30:12.117Z,22.37
2018-02-19T06:32:40.444Z,20.70
2018-02-19T06:35:07.996Z,21.10
2018-02-19T06:37:35.560Z,23.60
2018-02-19T06:40:03.880Z,17.13
2018-02-19T06:42:31.484Z,24.23
2018-02-19T06:44:59.049Z,25.23
2018-02-19T06:47:26.596Z,19.00
2018-02-19T06:49:54.165Z,21.53
2018-02-19T06:52:21.729Z,18.70
2018-02-19T06:54:49.296Z,21.70
2018-02-19T06:57:16.840Z,20.00
2018-02-19T06:59:45.175Z,21.60
2018-02-19T07:02:12.728Z,19.20
2018-02-19T07:04:40.303Z,19.27
2018-02-19T07:07:07.856Z,23.50
2018-02-19T07:09:35.434Z,23.00
2018-02-19T07:12:02.993Z,22.87
2018-02-19T07:14:31.364Z,22.60
2018-02-19T07:16:58.913Z,26.63
2018-02-19T07:19:26.488Z,25.70
2018-02-19T07:21:54.036Z,23.07
2018-02-19T07:24:21.663Z,35.33
2018-02-19T07:26:49.208Z,24.43
2018-02-19T07:29:16.758Z,23.50
2018-02-19T07:31:44.334Z,23.70
2018-02-19T07:34:12.641Z,19.50
2018-02-19T07:36:40.210Z,22.20
2018-02-19T07:39:07.765Z,25.67
2018-02-19T07:41:36.124Z,25.03
2018-02-19T07:44:03.670Z,27.00
2018-02-19T07:46:32.005Z,25.63
2018-02-19T07:48:59.552Z,22.50
2018-02-19T07:51:27.114Z,35.97
2018-02-19T07:53:55.421Z,28.90
2018-02-19T07:56:22.984Z,29.73
2018-02-19T07:58:50.527Z,30.40
2018-02-19T08:01:18.104Z,27.77
2018-02-19T08:03:46.467Z,26.10
2018-02-19T08:06:14.032Z,26.93
2018-02-19T08:08:41.605Z,28.50
2018-02-19T08:11:09.181Z,29.77
2018-02-19T08:13:36.732Z,25.77
2018-02-19T08:16:04.276Z,26.00
2018-02-19T08:18:31.852Z,34.70
2018-02-19T08:20:59.399Z,28.70
2018-02-19T08:23:27.744Z,28.37
2018-02-19T08:25:55.304Z,29.33
2018-02-19T08:28:22.904Z,28.47
2018-02-19T08:30:50.436Z,31.37
2018-02-19T08:33:18.012Z,30.73
2018-02-19T08:35:45.556Z,31.40
2018-02-19T08:38:13.889Z,32.70
2018-02-19T08:40:41.438Z,29.60
2018-02-19T08:43:08.997Z,26.90
2018-02-19T08:45:36.561Z,27.53
2018-02-19T08:48:04.891Z,35.93
2018-02-19T08:50:32.439Z,26.60
2018-02-19T08:53:00.004Z,30.17
2018-02-19T08:55:27.549Z,32.60
2018-02-19T08:57:55.112Z,33.83
2018-02-19T09:00:22.653Z,29.33
2018-02-19T09:02:50.212Z,30.53
2018-02-19T09:05:17.752Z,31.30
2018-02-19T09:07:46.066Z,26.53
2018-02-19T09:10:13.631Z,31.80
2018-02-19T09:12:41.173Z,29.67
2018-02-19T09:15:09.497Z,31.47
2018-02-19T09:17:37.043Z,28.83
2018-02-19T09:20:05.376Z,38.97
2018-02-19T09:22:32.962Z,29.00
2018-02-19T09:25:00.510Z,31.03
2018-02-19T09:27:28.060Z,29.43
2018-02-19T09:29:55.625Z,31.60
2018-02-19T09:32:23.202Z,27.07
2018-02-19T09:34:50.774Z,24.60
2018-02-19T09:37:18.338Z,38.30
2018-02-19T09:39:46.668Z,29.07
2018-02-19T09:42:14.263Z,36.77
2018-02-19T09:44:41.813Z,28.23
2018-02-19T09:47:09.389Z,28.57
2018-02-19T09:49:36.937Z,29.47
2018-02-19T09:52:04.519Z,31.43
2018-02-19T09:54:32.073Z,34.73
2018-02-19T09:56:59.643Z,25.60
2018-02-19T09:59:27.188Z,28.47
2018-02-19T10:01:55.528Z,24.23
2018-02-19T10:04:23.073Z,33.50
2018-02-19T10:06:50.637Z,28.50
2018-02-19T10:09:19.008Z,21.87
2018-02-19T10:11:47.336Z,29.80
2018-02-19T10:14:14.887Z,32.77
2018-02-19T10:16:43.216Z,26.70
2018-02-19T10:19:10.764Z,25.73
2018-02-19T10:21:38.324Z,34.23
2018-02-19T10:24:05.868Z,25.73
2018-02-19T10:26:33.437Z,22.47
2018-02-19T10:29:00.986Z,26.63
2018-02-19T10:31:28.900Z,32.73
2018-02-19T10:33:57.210Z,28.57
2018-02-19T10:36:24.756Z,25.77
2018-02-19T10:38:53.084Z,25.03
2018-02-19T10:41:20.624Z,28.10
2018-02-19T10:43:48.960Z,33.57
2018-02-19T10:46:16.532Z,25.47
2018-02-19T10:48:44.097Z,30.27
2018-02-19T10:51:11.652Z,29.30
2018-02-19T10:53:39.220Z,34.37
2018-02-19T10:56:06.770Z,33.73
2018-02-19T10:58:35.108Z,25.57
2018-02-19T11:01:02.659Z,30.10
2018-02-19T11:03:30.226Z,27.80
2018-02-19T11:05:57.764Z,28.83
2018-02-19T11:08:25.328Z,29.40
2018-02-19T11:10:52.877Z,27.80
2018-02-19T11:13:20.480Z,21.50
2018-02-19T11:15:48.008Z,25.23
2018-02-19T11:18:15.606Z,22.13
2018-02-19T11:20:43.157Z,28.40
2018-02-19T11:23:10.706Z,22.30
2018-02-19T11:25:38.269Z,21.77
2018-02-19T11:28:05.807Z,27.10
2018-02-19T11:30:33.377Z,23.60
2018-02-19T11:33:00.931Z,25.13
2018-02-19T11:35:30.014Z,24.27
2018-02-19T11:37:57.562Z,28.93
2018-02-19T11:40:25.130Z,27.63
2018-02-19T11:42:52.685Z,24.40
2018-02-19T11:45:21.045Z,25.87
2018-02-19T11:47:48.587Z,27.00
2018-02-19T11:50:16.179Z,27.67
2018-02-19T11:52:43.728Z,26.17
2018-02-19T11:55:11.317Z,27.70
2018-02-19T11:57:38.870Z,27.30
2018-02-19T12:00:06.440Z,28.87
2018-02-19T12:02:33.995Z,20.13
2018-02-19T12:05:01.597Z,23.53
2018-02-19T12:07:29.165Z,21.77
2018-02-19T12:09:56.722Z,26.60
2018-02-19T12:12:24.333Z,29.83
2018-02-19T12:14:51.869Z,24.33
2018-02-19T12:17:19.441Z,33.47
2018-02-19T12:19:46.990Z,21.67
2018-02-19T12:22:14.561Z,23.93
2018-02-19T12:24:42.112Z,21.60
2018-02-19T12:27:09.672Z,27.77
2018-02-19T12:29:37.224Z,29.00
2018-02-19T12:32:04.791Z,27.67
2018-02-19T12:34:32.328Z,26.17
2018-02-19T12:36:59.898Z,23.83
2018-02-19T12:39:28.047Z,21.23
2018-02-19T12:41:55.640Z,25.20
2018-02-19T12:44:23.953Z,25.57
2018-02-19T12:46:51.501Z,18.87
2018-02-19T12:49:19.833Z,27.40
2018-02-19T12:51:47.377Z,20.50
2018-02-19T12:54:14.940Z,30.43
2018-02-19T12:56:42.487Z,23.50
2018-02-19T12:59:10.060Z,26.63
2018-02-19T13:01:37.604Z,25.03
2018-02-19T13:04:05.200Z,24.97
2018-02-19T13:06:32.749Z,20.67
2018-02-19T13:09:00.307Z,26.50
2018-02-19T13:11:27.844Z,26.70
2018-02-19T13:13:55.440Z,26.93
2018-02-19T13:16:22.985Z,32.63
2018-02-19T13:18:50.580Z,26.20
2018-02-19T13:21:18.246Z,24.87
2018-02-19T13:23:45.810Z,22.80
2018-02-19T13:26:13.372Z,24.97
2018-02-19T13:28:41.685Z,21.77
2018-02-19T13:31:09.245Z,27.03
2018-02-19T13:33:36.807Z,25.63
2018-02-19T13:36:05.136Z,26.13
2018-02-19T13:38:32.708Z,26.83
2018-02-19T13:41:00.288Z,25.90
2018-02-19T13:43:33.734Z,24.83
2018-02-19T13:46:01.333Z,28.33
2018-02-19T13:48:28.910Z,27.23
2018-02-19T13:50:56.485Z,27.00
2018-02-19T13:53:24.029Z,32.23
2018-02-19T13:55:52.377Z,25.13
2018-02-19T13:58:19.921Z,22.83
2018-02-19T14:00:47.484Z,29.10
2018-02-19T14:03:15.033Z,22.87
2018-02-19T14:05:43.365Z,28.07
2018-02-19T14:08:10.910Z,31.47
2018-02-19T14:10:38.491Z,23.13
2018-02-19T14:13:06.136Z,30.47
2018-02-19T14:15:34.452Z,24.63
2018-02-19T14:18:02.025Z,21.80
2018-02-19T14:20:29.568Z,21.97
2018-02-19T14:22:57.904Z,23.17
2018-02-19T14:25:25.445Z,27.33
2018-02-19T14:27:53.025Z,24.83
2018-02-19T14:30:20.572Z,27.00
2018-02-19T14:32:48.908Z,28.73
2018-02-19T14:35:16.449Z,19.30
2018-02-19T14:37:44.020Z,25.10
2018-02-19T14:40:11.585Z,28.27
2018-02-19T14:42:39.931Z,26.13
2018-02-19T14:45:07.477Z,25.00
2018-02-19T14:47:35.025Z,24.77
2018-02-19T14:50:02.602Z,23.77
2018-02-19T14:52:30.148Z,19.23
2018-02-19T14:54:58.529Z,29.77
2018-02-19T14:57:26.885Z,28.80
2018-02-19T14:59:54.448Z,24.00
2018-02-19T15:02:22.078Z,26.90
2018-02-19T15:04:50.409Z,28.73
2018-02-19T15:07:17.953Z,32.47
2018-02-19T15:09:46.276Z,30.60
2018-02-19T15:12:13.830Z,26.57
2018-02-19T15:14:41.413Z,25.43
2018-02-19T15:17:08.957Z,33.07
2018-02-19T15:19:36.579Z,32.30
2018-02-19T15:22:04.126Z,27.53
2018-02-19T15:24:31.672Z,30.30
2018-02-19T15:27:00.005Z,29.07
2018-02-19T15:29:28.317Z,23.00
2018-02-19T15:31:55.888Z,28.07
2018-02-19T15:34:23.433Z,33.50
2018-02-19T15:36:51.022Z,23.10
2018-02-19T15:39:18.559Z,31.60
2018-02-19T15:41:46.510Z,28.50
2018-02-19T15:44:14.820Z,26.83
2018-02-19T15:46:42.385Z,23.77
2018-02-19T15:49:09.932Z,28.13
2018-02-19T15:51:38.264Z,32.10
2018-02-19T15:54:05.815Z,24.53
2018-02-19T15:56:33.401Z,25.27
2018-02-19T15:59:00.947Z,28.97
2018-02-19T16:01:28.524Z,22.30
2018-02-19T16:03:56.856Z,25.10
2018-02-19T16:06:24.402Z,28.77
2018-02-19T16:08:51.974Z,31.57
2018-02-19T16:11:19.523Z,28.77
2018-02-19T16:13:47.852Z,23.60
2018-02-19T16:16:15.404Z,29.07
2018-02-19T16:18:42.966Z,19.57
2018-02-19T16:21:10.508Z,24.13
2018-02-19T16:23:38.090Z,19.93
2018-02-19T16:26:06.405Z,28.17
2018-02-19T16:28:34.015Z,28.07
2018-02-19T16:31:01.574Z,23.73
2018-02-19T16:33:33.434Z,31.03
2018-02-19T16:36:00.992Z,26.30
2018-02-19T16:38:28.577Z,26.27
2018-02-19T16:40:56.147Z,29.70
2018-02-19T16:43:23.697Z,21.00
2018-02-19T16:45:52.024Z,22.73
2018-02-19T16:48:19.571Z,21.40
2018-02-19T16:50:47.165Z,18.37
2018-02-19T16:53:14.714Z,25.20
2018-02-19T16:55:42.285Z,22.53
2018-02-19T16:58:09.828Z,31.50
2018-02-19T17:00:38.165Z,22.53
2018-02-19T17:03:05.709Z,23.87
2018-02-19T17:05:33.268Z,25.00
2018-02-19T17:08:00.817Z,21.80
2018-02-19T17:10:28.412Z,40.17
2018-02-19T17:12:56.055Z,42.80
2018-02-19T17:15:24.367Z,37.73
2018-02-19T17:17:52.696Z,32.67
2018-02-19T17:20:20.244Z,28.33
2018-02-19T17:22:48.584Z,28.53
2018-02-19T17:25:16.129Z,30.53
2018-02-19T17:27:43.699Z,26.33
2018-02-19T17:30:11.277Z,30.00
2018-02-19T17:32:38.848Z,27.00
2018-02-19T17:35:07.012Z,28.73
2018-02-19T17:37:34.582Z,36.77
2018-02-19T17:40:02.163Z,22.40
2018-02-19T17:42:29.725Z,27.10
2018-02-19T17:44:57.351Z,30.17
2018-02-19T17:47:24.921Z,30.33
2018-02-19T17:49:52.468Z,27.63
2018-02-19T17:52:20.040Z,36.43
2018-02-19T17:54:47.642Z,25.17
2018-02-19T17:57:15.212Z,31.53
2018-02-19T17:59:42.759Z,29.53
2018-02-19T18:02:10.344Z,35.60
2018-02-19T18:04:37.897Z,30.80
2018-02-19T18:07:05.453Z,32.17
2018-02-19T18:09:33.020Z,33.20
2018-02-19T18:12:00.575Z,31.17
2018-02-19T18:14:28.904Z,37.60
2018-02-19T18:16:56.645Z,28.10
2018-02-19T18:19:24.306Z,31.97
2018-02-19T18:21:52.658Z,34.40
2018-02-19T18:24:20.208Z,32.33
2018-02-19T18:26:47.754Z,32.87
2018-02-19T18:29:15.329Z,33.70
2018-02-19T18:31:43.644Z,33.43
2018-02-19T18:34:11.217Z,31.10
2018-02-19T18:36:38.774Z,33.67
2018-02-19T18:39:06.361Z,32.80
2018-02-19T18:41:33.904Z,38.73
2018-02-19T18:44:01.484Z,44.37
2018-02-19T18:46:29.051Z,39.33
2018-02-19T18:48:57.373Z,37.27
2018-02-19T18:51:24.971Z,36.43
2018-02-19T18:53:52.541Z,34.93
2018-02-19T18:56:20.125Z,34.27
2018-02-19T18:58:48.474Z,36.87
2018-02-19T19:01:16.041Z,31.60
2018-02-19T19:03:43.598Z,36.73
2018-02-19T19:06:16.997Z,37.07
2018-02-19T19:08:56.549Z,38.17
2018-02-19T19:11:24.886Z,40.87
2018-02-19T19:13:52.440Z,38.37
2018-02-19T19:16:20.021Z,31.03
2018-02-19T19:18:47.567Z,35.50
2018-02-19T19:21:15.156Z,37.90
2018-02-19T19:23:42.709Z,40.80
2018-02-19T19:26:10.262Z,38.07
2018-02-19T19:28:38.601Z,48.60
2018-02-19T19:31:06.159Z,33.77
2018-02-19T19:33:33.739Z,33.17
2018-02-19T19:36:01.318Z,33.27
2018-02-19T19:38:28.889Z,40.50
2018-02-19T19:40:56.448Z,38.20
2018-02-19T19:43:24.024Z,39.83
2018-02-19T19:45:51.583Z,39.63
2018-02-19T19:48:19.165Z,48.50
2018-02-19T19:50:46.728Z,48.17
2018-02-19T19:53:14.300Z,43.40
2018-02-19T19:55:41.850Z,38.73
2018-02-19T19:58:09.425Z,38.90
2018-02-19T20:00:36.983Z,28.83
2018-02-19T20:03:05.349Z,37.03
2018-02-19T20:05:32.908Z,36.70
2018-02-19T20:08:00.466Z,40.30
2018-02-19T20:10:28.040Z,37.87
2018-02-19T20:12:55.590Z,39.37
2018-02-19T20:15:23.167Z,40.23
2018-02-19T20:17:50.721Z,45.60
2018-02-19T20:20:18.299Z,41.00
2018-02-19T20:22:45.857Z,52.93
2018-02-19T20:25:13.425Z,53.30
2018-02-19T20:27:41.736Z,62.00
2018-02-19T20:30:09.296Z,64.23
2018-02-19T20:32:44.076Z,70.13
2018-02-19T20:35:11.665Z,58.33
2018-02-19T20:37:39.219Z,50.53
2018-02-19T20:40:06.839Z,50.47
2018-02-19T20:42:34.417Z,52.23
2018-02-19T20:45:02.776Z,44.67
2018-02-19T20:47:30.353Z,52.70
2018-02-19T20:49:58.689Z,46.80
2018-02-19T20:52:26.262Z,39.80
2018-02-19T20:54:53.818Z,40.67
2018-02-19T20:57:22.150Z,39.83
2018-02-19T20:59:49.802Z,50.43
2018-02-19T21:02:17.660Z,50.67
2018-02-19T21:04:45.228Z,50.73
2018-02-19T21:07:13.568Z,42.90
2018-02-19T21:09:41.117Z,47.37
2018-02-19T21:12:08.693Z,41.20
2018-02-19T21:14:36.253Z,45.07
2018-02-19T21:17:03.821Z,45.90
2018-02-19T21:19:31.365Z,40.20
2018-02-19T21:21:59.700Z,61.17
2018-02-19T21:24:27.246Z,52.10
2018-02-19T21:26:55.600Z,46.33
2018-02-19T21:29:23.988Z,42.30
2018-02-19T21:31:51.597Z,39.17
2018-02-19T21:34:19.922Z,44.00
2018-02-19T21:36:47.499Z,48.77
2018-02-19T21:39:15.063Z,60.50
2018-02-19T21:41:42.635Z,60.87
2018-02-19T21:44:10.221Z,65.00
2018-02-19T21:46:37.773Z,67.90
2018-02-19T21:49:05.391Z,58.63
2018-02-19T21:51:32.952Z,63.20
2018-02-19T21:54:00.561Z,67.63
2018-02-19T21:56:28.873Z,68.97
2018-02-19T21:58:56.454Z,59.13
2018-02-19T22:01:24.025Z,57.03
2018-02-19T22:03:51.599Z,61.27
2018-02-19T22:06:19.147Z,74.73
2018-02-19T22:08:46.717Z,69.17
2018-02-19T22:11:14.267Z,64.80
2018-02-19T22:13:41.868Z,62.10
2018-02-19T22:16:09.415Z,59.93
2018-02-19T22:18:36.964Z,58.37
2018-02-19T22:21:04.535Z,60.77
2018-02-19T22:23:36.217Z,58.43
2018-02-19T22:26:03.938Z,53.87
2018-02-19T22:28:31.538Z,67.50
2018-02-19T22:30:59.101Z,69.80
2018-02-19T22:33:26.684Z,60.57
2018-02-19T22:35:54.265Z,55.90
2018-02-19T22:38:21.828Z,63.00
2018-02-19T22:40:49.396Z,55.97
2018-02-19T22:43:17.753Z,58.20
2018-02-19T22:45:45.328Z,56.77
2018-02-19T22:48:12.880Z,62.40
2018-02-19T22:50:41.216Z,58.73
2018-02-19T22:53:08.766Z,56.37
2018-02-19T22:55:36.340Z,63.03
2018-02-19T22:58:03.893Z,57.70
2018-02-19T23:00:31.448Z,58.47
2018-02-19T23:02:59.015Z,69.57
2018-02-19T23:05:26.564Z,67.90
2018-02-19T23:07:54.138Z,69.83
2018-02-19T23:10:21.691Z,62.40
2018-02-19T23:12:50.021Z,66.03
2018-02-19T23:15:17.582Z,59.47
2018-02-19T23:17:45.149Z,59.50
2018-02-19T23:20:12.712Z,63.83
2018-02-19T23:22:41.055Z,72.77
2018-02-19T23:25:08.608Z,56.53
2018-02-19T23:27:36.941Z,65.37
2018-02-19T23:30:04.516Z,62.00
2018-02-19T23:32:32.059Z,68.97
2018-02-19T23:35:02.441Z,76.53
2018-02-19T23:37:27.208Z,66.93
2018-02-19T23:39:54.771Z,74.13
2018-02-19T23:42:22.340Z,69.20
2018-02-19T23:44:49.917Z,74.37
2018-02-19T23:47:17.458Z,76.57
2018-02-19T23:49:45.025Z,71.67
2018-02-19T23:52:12.563Z,71.00
2018-02-19T23:54:40.136Z,64.20
2018-02-19T23:57:07.698Z,71.10
2018-02-19T23:59:35.261Z,78.10
